sensor_id;sensor_type;location;lat;lon;timestamp;P1;durP1;ratioP1;P2;durP2;ratioP2
7511;SDS011;9999;48.780;9.146;2023-02-28T00:00:39;1.87;;;1.63;;
7511;SDS011;9999;48.780;9.146;2023-02-28T00:03:06;1.40;;;1.30;;
7511;SDS011;9999;48.780;9.146;2023-02-28T00:05:33;1.87;;;1.30;;
7511;SDS011;9999;48.780;9.146;2023-02-28T00:08:00;1.70;;;1.60;;
7511;SDS011;9999;48.780;9.146;2023-02-28T00:10:28;1.30;;;1.20;;
7511;SDS011;9999;48.780;9.146;2023-02-28T00:12:58;1.70;;;1.13;;
7511;SDS011;9999;48.780;9.146;2023-02-28T00:15:28;2.83;;;1.90;;
7511;SDS011;9999;48.780;9.146;2023-02-28T00:17:54;1.33;;;1.23;;
7511;SDS011;9999;48.780;9.146;2023-02-28T00:20:21;1.40;;;1.30;;
7511;SDS011;9999;48.780;9.146;2023-02-28T00:22:49;1.67;;;1.40;;
7511;SDS011;9999;48.780;9.146;2023-02-28T00:25:19;1.73;;;1.63;;
7511;SDS011;9999;48.780;9.146;2023-02-28T00:27:47;1.20;;;1.20;;
7511;SDS011;9999;48.780;9.146;2023-02-28T00:30:16;1.97;;;1.53;;
7511;SDS011;9999;48.780;9.146;2023-02-28T00:32:45;1.80;;;1.00;;
7511;SDS011;9999;48.780;9.146;2023-02-28T00:35:12;1.80;;;1.50;;
7511;SDS011;9999;48.780;9.146;2023-02-28T00:37:40;2.90;;;2.07;;
7511;SDS011;9999;48.780;9.146;2023-02-28T00:40:07;2.00;;;1.37;;
7511;SDS011;9999;48.780;9.146;2023-02-28T00:42:36;1.67;;;1.43;;
7511;SDS011;9999;48.780;9.146;2023-02-28T00:45:03;1.50;;;1.13;;
7511;SDS011;9999;48.780;9.146;2023-02-28T00:47:31;1.97;;;1.70;;
7511;SDS011;9999;48.780;9.146;2023-02-28T00:49:59;2.07;;;1.63;;
7511;SDS011;9999;48.780;9.146;2023-02-28T00:52:27;2.63;;;1.40;;
7511;SDS011;9999;48.780;9.146;2023-02-28T00:54:54;1.17;;;1.17;;
7511;SDS011;9999;48.780;9.146;2023-02-28T00:57:21;2.13;;;1.73;;
7511;SDS011;9999;48.780;9.146;2023-02-28T00:59:47;1.40;;;1.30;;
7511;SDS011;9999;48.780;9.146;2023-02-28T01:02:14;1.80;;;1.20;;
7511;SDS011;9999;48.780;9.146;2023-02-28T01:04:43;1.53;;;1.43;;
7511;SDS011;9999;48.780;9.146;2023-02-28T01:07:11;3.83;;;2.07;;
7511;SDS011;9999;48.780;9.146;2023-02-28T01:09:39;1.73;;;1.57;;
7511;SDS011;9999;48.780;9.146;2023-02-28T01:12:06;1.40;;;1.30;;
7511;SDS011;9999;48.780;9.146;2023-02-28T01:14:34;3.80;;;2.27;;
7511;SDS011;9999;48.780;9.146;2023-02-28T01:17:01;1.03;;;1.03;;
7511;SDS011;9999;48.780;9.146;2023-02-28T01:19:28;3.33;;;1.80;;
7511;SDS011;9999;48.780;9.146;2023-02-28T01:21:54;2.03;;;1.83;;
7511;SDS011;9999;48.780;9.146;2023-02-28T01:24:22;1.67;;;1.57;;
7511;SDS011;9999;48.780;9.146;2023-02-28T01:26:49;1.70;;;1.60;;
7511;SDS011;9999;48.780;9.146;2023-02-28T01:29:16;2.50;;;2.13;;
7511;SDS011;9999;48.780;9.146;2023-02-28T01:31:43;2.97;;;2.17;;
7511;SDS011;9999;48.780;9.146;2023-02-28T01:34:10;2.10;;;1.50;;
7511;SDS011;9999;48.780;9.146;2023-02-28T01:36:37;2.33;;;1.97;;
7511;SDS011;9999;48.780;9.146;2023-02-28T01:39:04;1.63;;;1.53;;
7511;SDS011;9999;48.780;9.146;2023-02-28T01:41:33;1.73;;;1.37;;
7511;SDS011;9999;48.780;9.146;2023-02-28T01:44:02;1.83;;;1.73;;
7511;SDS011;9999;48.780;9.146;2023-02-28T01:46:31;2.13;;;1.93;;
7511;SDS011;9999;48.780;9.146;2023-02-28T01:49:01;1.60;;;1.50;;
7511;SDS011;9999;48.780;9.146;2023-02-28T01:51:35;1.07;;;1.07;;
7511;SDS011;9999;48.780;9.146;2023-02-28T01:54:11;1.90;;;1.80;;
7511;SDS011;9999;48.780;9.146;2023-02-28T01:56:43;1.60;;;1.50;;
7511;SDS011;9999;48.780;9.146;2023-02-28T01:59:13;1.90;;;1.70;;
7511;SDS011;9999;48.780;9.146;2023-02-28T02:01:43;2.50;;;1.80;;
7511;SDS011;9999;48.780;9.146;2023-02-28T02:04:10;2.97;;;2.00;;
7511;SDS011;9999;48.780;9.146;2023-02-28T02:06:37;1.83;;;1.63;;
7511;SDS011;9999;48.780;9.146;2023-02-28T02:09:09;4.17;;;1.60;;
7511;SDS011;9999;48.780;9.146;2023-02-28T02:11:36;3.57;;;1.77;;
7511;SDS011;9999;48.780;9.146;2023-02-28T02:14:10;1.90;;;1.73;;
7511;SDS011;9999;48.780;9.146;2023-02-28T02:16:56;1.27;;;1.27;;
7511;SDS011;9999;48.780;9.146;2023-02-28T02:22:44;3.00;;;2.17;;
7511;SDS011;9999;48.780;9.146;2023-02-28T02:25:28;1.60;;;1.50;;
7511;SDS011;9999;48.780;9.146;2023-02-28T02:28:18;3.13;;;1.53;;
7511;SDS011;9999;48.780;9.146;2023-02-28T02:31:06;1.50;;;1.40;;
7511;SDS011;9999;48.780;9.146;2023-02-28T02:37:00;2.20;;;2.10;;
7511;SDS011;9999;48.780;9.146;2023-02-28T02:39:36;2.13;;;2.00;;
7511;SDS011;9999;48.780;9.146;2023-02-28T02:42:13;1.67;;;1.50;;
7511;SDS011;9999;48.780;9.146;2023-02-28T02:44:45;2.33;;;2.07;;
7511;SDS011;9999;48.780;9.146;2023-02-28T02:47:16;1.50;;;1.40;;
7511;SDS011;9999;48.780;9.146;2023-02-28T02:49:47;2.03;;;1.93;;
7511;SDS011;9999;48.780;9.146;2023-02-28T02:52:18;2.53;;;2.33;;
7511;SDS011;9999;48.780;9.146;2023-02-28T02:54:51;2.80;;;1.90;;
7511;SDS011;9999;48.780;9.146;2023-02-28T02:57:23;1.97;;;1.67;;
7511;SDS011;9999;48.780;9.146;2023-02-28T02:59:58;4.27;;;1.90;;
7511;SDS011;9999;48.780;9.146;2023-02-28T03:02:26;2.43;;;1.83;;
7511;SDS011;9999;48.780;9.146;2023-02-28T03:05:01;2.57;;;2.23;;
7511;SDS011;9999;48.780;9.146;2023-02-28T03:07:31;6.40;;;2.20;;
7511;SDS011;9999;48.780;9.146;2023-02-28T03:09:58;3.80;;;1.73;;
7511;SDS011;9999;48.780;9.146;2023-02-28T03:12:27;2.23;;;2.13;;
7511;SDS011;9999;48.780;9.146;2023-02-28T03:15:03;7.00;;;2.50;;
7511;SDS011;9999;48.780;9.146;2023-02-28T03:17:40;1.50;;;1.40;;
7511;SDS011;9999;48.780;9.146;2023-02-28T03:20:17;2.90;;;1.80;;
7511;SDS011;9999;48.780;9.146;2023-02-28T03:22:59;1.63;;;1.53;;
7511;SDS011;9999;48.780;9.146;2023-02-28T03:25:37;3.53;;;1.63;;
7511;SDS011;9999;48.780;9.146;2023-02-28T03:28:13;3.30;;;2.33;;
7511;SDS011;9999;48.780;9.146;2023-02-28T03:30:47;3.07;;;1.83;;
7511;SDS011;9999;48.780;9.146;2023-02-28T03:33:19;1.83;;;1.70;;
7511;SDS011;9999;48.780;9.146;2023-02-28T03:35:52;2.43;;;2.23;;
7511;SDS011;9999;48.780;9.146;2023-02-28T03:38:25;1.87;;;1.77;;
7511;SDS011;9999;48.780;9.146;2023-02-28T03:40:57;2.57;;;2.37;;
7511;SDS011;9999;48.780;9.146;2023-02-28T03:43:29;3.80;;;2.33;;
7511;SDS011;9999;48.780;9.146;2023-02-28T03:46:01;2.37;;;2.17;;
7511;SDS011;9999;48.780;9.146;2023-02-28T03:48:33;4.20;;;2.43;;
7511;SDS011;9999;48.780;9.146;2023-02-28T03:51:06;2.27;;;2.07;;
7511;SDS011;9999;48.780;9.146;2023-02-28T03:53:35;2.17;;;1.83;;
7511;SDS011;9999;48.780;9.146;2023-02-28T03:56:06;3.90;;;2.67;;
7511;SDS011;9999;48.780;9.146;2023-02-28T03:58:39;2.50;;;2.30;;
7511;SDS011;9999;48.780;9.146;2023-02-28T04:01:15;4.07;;;2.30;;
7511;SDS011;9999;48.780;9.146;2023-02-28T04:03:46;2.23;;;1.97;;
7511;SDS011;9999;48.780;9.146;2023-02-28T04:06:15;2.47;;;2.27;;
7511;SDS011;9999;48.780;9.146;2023-02-28T04:08:44;2.83;;;2.43;;
7511;SDS011;9999;48.780;9.146;2023-02-28T04:11:14;6.13;;;2.73;;
7511;SDS011;9999;48.780;9.146;2023-02-28T04:13:47;2.93;;;2.30;;
7511;SDS011;9999;48.780;9.146;2023-02-28T04:16:14;4.00;;;2.57;;
7511;SDS011;9999;48.780;9.146;2023-02-28T04:18:41;2.13;;;1.97;;
7511;SDS011;9999;48.780;9.146;2023-02-28T04:21:09;1.57;;;1.47;;
7511;SDS011;9999;48.780;9.146;2023-02-28T04:23:38;2.03;;;1.67;;
7511;SDS011;9999;48.780;9.146;2023-02-28T04:26:05;2.47;;;2.10;;
7511;SDS011;9999;48.780;9.146;2023-02-28T04:28:32;3.53;;;2.07;;
7511;SDS011;9999;48.780;9.146;2023-02-28T04:31:00;3.77;;;2.80;;
7511;SDS011;9999;48.780;9.146;2023-02-28T04:33:28;4.07;;;2.20;;
7511;SDS011;9999;48.780;9.146;2023-02-28T04:35:59;2.47;;;1.73;;
7511;SDS011;9999;48.780;9.146;2023-02-28T04:38:27;4.23;;;2.00;;
7511;SDS011;9999;48.780;9.146;2023-02-28T04:40:58;2.63;;;2.03;;
7511;SDS011;9999;48.780;9.146;2023-02-28T04:43:25;2.50;;;2.30;;
7511;SDS011;9999;48.780;9.146;2023-02-28T04:45:52;3.40;;;2.07;;
7511;SDS011;9999;48.780;9.146;2023-02-28T04:48:21;2.63;;;2.20;;
7511;SDS011;9999;48.780;9.146;2023-02-28T04:50:48;3.40;;;2.47;;
7511;SDS011;9999;48.780;9.146;2023-02-28T04:53:15;3.03;;;2.70;;
7511;SDS011;9999;48.780;9.146;2023-02-28T04:55:42;3.30;;;3.00;;
7511;SDS011;9999;48.780;9.146;2023-02-28T04:58:10;2.80;;;2.23;;
7511;SDS011;9999;48.780;9.146;2023-02-28T05:00:37;2.47;;;2.27;;
7511;SDS011;9999;48.780;9.146;2023-02-28T05:03:04;5.73;;;3.50;;
7511;SDS011;9999;48.780;9.146;2023-02-28T05:05:31;2.27;;;2.07;;
7511;SDS011;9999;48.780;9.146;2023-02-28T05:07:57;5.23;;;2.60;;
7511;SDS011;9999;48.780;9.146;2023-02-28T05:10:25;3.10;;;2.30;;
7511;SDS011;9999;48.780;9.146;2023-02-28T05:12:51;3.20;;;2.03;;
7511;SDS011;9999;48.780;9.146;2023-02-28T05:15:20;5.23;;;3.03;;
7511;SDS011;9999;48.780;9.146;2023-02-28T05:17:46;3.53;;;2.60;;
7511;SDS011;9999;48.780;9.146;2023-02-28T05:20:13;3.00;;;2.17;;
7511;SDS011;9999;48.780;9.146;2023-02-28T05:22:40;3.37;;;1.80;;
7511;SDS011;9999;48.780;9.146;2023-02-28T05:25:08;5.13;;;2.93;;
7511;SDS011;9999;48.780;9.146;2023-02-28T05:27:37;2.90;;;2.23;;
7511;SDS011;9999;48.780;9.146;2023-02-28T05:30:04;2.63;;;2.17;;
7511;SDS011;9999;48.780;9.146;2023-02-28T05:32:33;2.77;;;2.47;;
7511;SDS011;9999;48.780;9.146;2023-02-28T05:35:00;3.87;;;2.53;;
7511;SDS011;9999;48.780;9.146;2023-02-28T05:37:27;3.73;;;2.80;;
7511;SDS011;9999;48.780;9.146;2023-02-28T05:39:54;4.23;;;2.73;;
7511;SDS011;9999;48.780;9.146;2023-02-28T05:42:21;3.23;;;2.40;;
7511;SDS011;9999;48.780;9.146;2023-02-28T05:44:47;3.07;;;2.53;;
7511;SDS011;9999;48.780;9.146;2023-02-28T05:47:14;2.77;;;2.27;;
7511;SDS011;9999;48.780;9.146;2023-02-28T05:49:43;3.60;;;2.57;;
7511;SDS011;9999;48.780;9.146;2023-02-28T05:52:10;2.97;;;2.77;;
7511;SDS011;9999;48.780;9.146;2023-02-28T05:54:36;3.53;;;2.27;;
7511;SDS011;9999;48.780;9.146;2023-02-28T05:57:03;5.70;;;3.73;;
7511;SDS011;9999;48.780;9.146;2023-02-28T05:59:30;3.87;;;2.20;;
7511;SDS011;9999;48.780;9.146;2023-02-28T06:01:57;2.50;;;2.10;;
7511;SDS011;9999;48.780;9.146;2023-02-28T06:04:23;3.83;;;2.70;;
7511;SDS011;9999;48.780;9.146;2023-02-28T06:06:51;3.00;;;2.67;;
7511;SDS011;9999;48.780;9.146;2023-02-28T06:09:18;3.00;;;2.70;;
7511;SDS011;9999;48.780;9.146;2023-02-28T06:11:45;4.23;;;3.83;;
7511;SDS011;9999;48.780;9.146;2023-02-28T06:14:13;3.13;;;2.30;;
7511;SDS011;9999;48.780;9.146;2023-02-28T06:16:42;3.07;;;2.77;;
7511;SDS011;9999;48.780;9.146;2023-02-28T06:19:09;5.60;;;2.43;;
7511;SDS011;9999;48.780;9.146;2023-02-28T06:21:36;4.20;;;2.43;;
7511;SDS011;9999;48.780;9.146;2023-02-28T06:24:05;3.13;;;2.67;;
7511;SDS011;9999;48.780;9.146;2023-02-28T06:26:32;4.83;;;3.33;;
7511;SDS011;9999;48.780;9.146;2023-02-28T06:28:59;3.57;;;2.50;;
7511;SDS011;9999;48.780;9.146;2023-02-28T06:31:26;4.00;;;2.50;;
7511;SDS011;9999;48.780;9.146;2023-02-28T06:33:54;3.43;;;2.93;;
7511;SDS011;9999;48.780;9.146;2023-02-28T06:36:20;5.90;;;2.87;;
7511;SDS011;9999;48.780;9.146;2023-02-28T06:38:47;3.10;;;2.37;;
7511;SDS011;9999;48.780;9.146;2023-02-28T06:41:21;3.43;;;2.87;;
7511;SDS011;9999;48.780;9.146;2023-02-28T06:43:48;5.77;;;2.90;;
7511;SDS011;9999;48.780;9.146;2023-02-28T06:46:15;3.30;;;3.00;;
7511;SDS011;9999;48.780;9.146;2023-02-28T06:48:42;3.63;;;2.37;;
7511;SDS011;9999;48.780;9.146;2023-02-28T06:51:10;3.67;;;3.13;;
7511;SDS011;9999;48.780;9.146;2023-02-28T06:53:38;3.37;;;2.87;;
7511;SDS011;9999;48.780;9.146;2023-02-28T06:56:05;4.30;;;2.53;;
7511;SDS011;9999;48.780;9.146;2023-02-28T06:58:35;4.60;;;3.20;;
7511;SDS011;9999;48.780;9.146;2023-02-28T07:01:02;3.13;;;2.83;;
7511;SDS011;9999;48.780;9.146;2023-02-28T07:03:30;2.97;;;2.63;;
7511;SDS011;9999;48.780;9.146;2023-02-28T07:05:57;3.37;;;2.73;;
7511;SDS011;9999;48.780;9.146;2023-02-28T07:08:24;3.87;;;3.33;;
7511;SDS011;9999;48.780;9.146;2023-02-28T07:10:52;5.53;;;3.07;;
7511;SDS011;9999;48.780;9.146;2023-02-28T07:13:19;4.03;;;3.30;;
7511;SDS011;9999;48.780;9.146;2023-02-28T07:15:53;6.77;;;3.40;;
7511;SDS011;9999;48.780;9.146;2023-02-28T07:18:21;3.40;;;2.83;;
7511;SDS011;9999;48.780;9.146;2023-02-28T07:20:48;2.27;;;2.07;;
7511;SDS011;9999;48.780;9.146;2023-02-28T07:23:15;4.57;;;2.77;;
7511;SDS011;9999;48.780;9.146;2023-02-28T07:25:42;3.03;;;2.37;;
7511;SDS011;9999;48.780;9.146;2023-02-28T07:28:10;3.27;;;2.53;;
7511;SDS011;9999;48.780;9.146;2023-02-28T07:30:37;4.77;;;3.33;;
7511;SDS011;9999;48.780;9.146;2023-02-28T07:33:06;5.47;;;3.13;;
7511;SDS011;9999;48.780;9.146;2023-02-28T07:35:32;4.40;;;3.50;;
7511;SDS011;9999;48.780;9.146;2023-02-28T07:37:59;4.67;;;3.43;;
7511;SDS011;9999;48.780;9.146;2023-02-28T07:40:27;5.33;;;3.83;;
7511;SDS011;9999;48.780;9.146;2023-02-28T07:42:54;5.63;;;3.10;;
7511;SDS011;9999;48.780;9.146;2023-02-28T07:45:21;4.57;;;2.70;;
7511;SDS011;9999;48.780;9.146;2023-02-28T07:47:48;4.53;;;3.47;;
7511;SDS011;9999;48.780;9.146;2023-02-28T07:50:16;7.07;;;3.00;;
7511;SDS011;9999;48.780;9.146;2023-02-28T07:52:43;4.70;;;3.27;;
7511;SDS011;9999;48.780;9.146;2023-02-28T07:55:10;3.50;;;2.67;;
7511;SDS011;9999;48.780;9.146;2023-02-28T07:57:37;3.37;;;3.07;;
7511;SDS011;9999;48.780;9.146;2023-02-28T08:00:04;7.27;;;2.93;;
7511;SDS011;9999;48.780;9.146;2023-02-28T08:02:37;5.97;;;3.53;;
7511;SDS011;9999;48.780;9.146;2023-02-28T08:05:04;3.77;;;2.70;;
7511;SDS011;9999;48.780;9.146;2023-02-28T08:07:33;4.47;;;3.23;;
7511;SDS011;9999;48.780;9.146;2023-02-28T08:10:00;4.90;;;3.87;;
7511;SDS011;9999;48.780;9.146;2023-02-28T08:12:27;3.23;;;2.77;;
7511;SDS011;9999;48.780;9.146;2023-02-28T08:14:53;7.20;;;4.07;;
7511;SDS011;9999;48.780;9.146;2023-02-28T08:17:20;3.40;;;3.10;;
7511;SDS011;9999;48.780;9.146;2023-02-28T08:19:47;4.97;;;3.90;;
7511;SDS011;9999;48.780;9.146;2023-02-28T08:22:13;4.07;;;3.67;;
7511;SDS011;9999;48.780;9.146;2023-02-28T08:24:42;4.10;;;3.43;;
7511;SDS011;9999;48.780;9.146;2023-02-28T08:27:08;7.60;;;4.10;;
7511;SDS011;9999;48.780;9.146;2023-02-28T08:29:36;4.23;;;3.57;;
7511;SDS011;9999;48.780;9.146;2023-02-28T08:32:03;4.23;;;3.80;;
7511;SDS011;9999;48.780;9.146;2023-02-28T08:34:30;3.43;;;2.67;;
7511;SDS011;9999;48.780;9.146;2023-02-28T08:36:57;5.53;;;3.87;;
7511;SDS011;9999;48.780;9.146;2023-02-28T08:39:24;4.47;;;3.13;;
7511;SDS011;9999;48.780;9.146;2023-02-28T08:41:52;4.90;;;4.27;;
7511;SDS011;9999;48.780;9.146;2023-02-28T08:44:19;3.77;;;3.47;;
7511;SDS011;9999;48.780;9.146;2023-02-28T08:46:46;5.70;;;3.50;;
7511;SDS011;9999;48.780;9.146;2023-02-28T08:49:12;5.53;;;3.60;;
7511;SDS011;9999;48.780;9.146;2023-02-28T08:51:39;7.50;;;4.10;;
7511;SDS011;9999;48.780;9.146;2023-02-28T08:54:07;4.77;;;3.47;;
7511;SDS011;9999;48.780;9.146;2023-02-28T08:56:35;4.57;;;3.80;;
7511;SDS011;9999;48.780;9.146;2023-02-28T08:59:03;4.70;;;2.90;;
7511;SDS011;9999;48.780;9.146;2023-02-28T09:01:30;4.87;;;3.47;;
7511;SDS011;9999;48.780;9.146;2023-02-28T09:03:57;5.50;;;3.93;;
7511;SDS011;9999;48.780;9.146;2023-02-28T09:06:25;6.53;;;3.80;;
7511;SDS011;9999;48.780;9.146;2023-02-28T09:08:53;6.33;;;4.57;;
7511;SDS011;9999;48.780;9.146;2023-02-28T09:11:23;4.43;;;3.50;;
7511;SDS011;9999;48.780;9.146;2023-02-28T09:13:50;7.53;;;3.97;;
7511;SDS011;9999;48.780;9.146;2023-02-28T09:16:18;5.87;;;4.20;;
7511;SDS011;9999;48.780;9.146;2023-02-28T09:18:45;5.93;;;4.23;;
7511;SDS011;9999;48.780;9.146;2023-02-28T09:21:13;4.53;;;3.83;;
7511;SDS011;9999;48.780;9.146;2023-02-28T09:23:41;4.57;;;3.90;;
7511;SDS011;9999;48.780;9.146;2023-02-28T09:26:12;4.43;;;3.23;;
7511;SDS011;9999;48.780;9.146;2023-02-28T09:28:40;4.80;;;4.30;;
7511;SDS011;9999;48.780;9.146;2023-02-28T09:31:10;4.30;;;3.53;;
7511;SDS011;9999;48.780;9.146;2023-02-28T09:33:40;6.23;;;4.33;;
7511;SDS011;9999;48.780;9.146;2023-02-28T09:36:07;6.50;;;3.83;;
7511;SDS011;9999;48.780;9.146;2023-02-28T09:38:34;6.17;;;3.63;;
7511;SDS011;9999;48.780;9.146;2023-02-28T09:41:02;6.30;;;4.10;;
7511;SDS011;9999;48.780;9.146;2023-02-28T09:43:35;3.80;;;3.10;;
7511;SDS011;9999;48.780;9.146;2023-02-28T09:46:08;4.40;;;3.83;;
7511;SDS011;9999;48.780;9.146;2023-02-28T09:48:45;6.73;;;4.03;;
7511;SDS011;9999;48.780;9.146;2023-02-28T09:51:15;5.73;;;3.93;;
7511;SDS011;9999;48.780;9.146;2023-02-28T09:53:55;5.27;;;3.83;;
7511;SDS011;9999;48.780;9.146;2023-02-28T09:56:22;6.87;;;4.80;;
7511;SDS011;9999;48.780;9.146;2023-02-28T09:58:53;6.77;;;3.73;;
7511;SDS011;9999;48.780;9.146;2023-02-28T10:01:25;5.73;;;4.10;;
7511;SDS011;9999;48.780;9.146;2023-02-28T10:04:03;5.67;;;4.30;;
7511;SDS011;9999;48.780;9.146;2023-02-28T10:06:35;4.70;;;3.40;;
7511;SDS011;9999;48.780;9.146;2023-02-28T10:09:08;7.97;;;4.47;;
7511;SDS011;9999;48.780;9.146;2023-02-28T10:11:39;5.87;;;4.00;;
7511;SDS011;9999;48.780;9.146;2023-02-28T10:14:10;7.40;;;4.70;;
7511;SDS011;9999;48.780;9.146;2023-02-28T10:16:40;6.63;;;4.00;;
7511;SDS011;9999;48.780;9.146;2023-02-28T10:19:14;5.37;;;4.23;;
7511;SDS011;9999;48.780;9.146;2023-02-28T10:21:47;4.17;;;3.77;;
7511;SDS011;9999;48.780;9.146;2023-02-28T10:24:23;5.40;;;3.87;;
7511;SDS011;9999;48.780;9.146;2023-02-28T10:26:56;4.67;;;3.93;;
7511;SDS011;9999;48.780;9.146;2023-02-28T10:29:26;6.17;;;4.37;;
7511;SDS011;9999;48.780;9.146;2023-02-28T10:31:54;6.87;;;4.60;;
7511;SDS011;9999;48.780;9.146;2023-02-28T10:34:23;6.23;;;3.90;;
7511;SDS011;9999;48.780;9.146;2023-02-28T10:36:50;6.20;;;4.40;;
7511;SDS011;9999;48.780;9.146;2023-02-28T10:39:34;7.00;;;4.70;;
7511;SDS011;9999;48.780;9.146;2023-02-28T10:42:02;6.93;;;4.50;;
7511;SDS011;9999;48.780;9.146;2023-02-28T10:44:29;6.70;;;3.70;;
7511;SDS011;9999;48.780;9.146;2023-02-28T10:46:56;7.93;;;4.27;;
7511;SDS011;9999;48.780;9.146;2023-02-28T10:49:25;5.07;;;3.80;;
7511;SDS011;9999;48.780;9.146;2023-02-28T10:51:54;7.47;;;4.13;;
7511;SDS011;9999;48.780;9.146;2023-02-28T10:54:24;6.00;;;4.03;;
7511;SDS011;9999;48.780;9.146;2023-02-28T10:57:15;5.90;;;4.00;;
7511;SDS011;9999;48.780;9.146;2023-02-28T10:59:44;6.57;;;4.43;;
7511;SDS011;9999;48.780;9.146;2023-02-28T11:04:59;5.83;;;3.80;;
7511;SDS011;9999;48.780;9.146;2023-02-28T11:07:26;5.77;;;3.77;;
7511;SDS011;9999;48.780;9.146;2023-02-28T11:09:54;7.77;;;4.33;;
7511;SDS011;9999;48.780;9.146;2023-02-28T11:12:23;5.60;;;4.30;;
7511;SDS011;9999;48.780;9.146;2023-02-28T11:14:54;6.53;;;4.67;;
7511;SDS011;9999;48.780;9.146;2023-02-28T11:17:24;7.83;;;5.33;;
7511;SDS011;9999;48.780;9.146;2023-02-28T11:19:54;9.23;;;4.63;;
7511;SDS011;9999;48.780;9.146;2023-02-28T11:22:24;7.70;;;4.10;;
7511;SDS011;9999;48.780;9.146;2023-02-28T11:24:55;5.13;;;3.90;;
7511;SDS011;9999;48.780;9.146;2023-02-28T11:27:26;6.60;;;4.17;;
7511;SDS011;9999;48.780;9.146;2023-02-28T11:30:25;9.43;;;5.00;;
7511;SDS011;9999;48.780;9.146;2023-02-28T11:32:56;6.37;;;4.47;;
7511;SDS011;9999;48.780;9.146;2023-02-28T11:35:25;6.23;;;4.13;;
7511;SDS011;9999;48.780;9.146;2023-02-28T11:37:56;7.47;;;4.00;;
7511;SDS011;9999;48.780;9.146;2023-02-28T11:40:24;6.40;;;4.60;;
7511;SDS011;9999;48.780;9.146;2023-02-28T11:43:01;6.53;;;4.03;;
7511;SDS011;9999;48.780;9.146;2023-02-28T11:45:38;7.80;;;3.80;;
7511;SDS011;9999;48.780;9.146;2023-02-28T11:48:14;7.67;;;4.93;;
7511;SDS011;9999;48.780;9.146;2023-02-28T11:50:47;5.03;;;3.40;;
7511;SDS011;9999;48.780;9.146;2023-02-28T11:53:24;5.77;;;4.10;;
7511;SDS011;9999;48.780;9.146;2023-02-28T11:56:16;5.43;;;4.33;;
7511;SDS011;9999;48.780;9.146;2023-02-28T11:58:52;5.73;;;4.17;;
7511;SDS011;9999;48.780;9.146;2023-02-28T12:01:31;7.10;;;4.60;;
7511;SDS011;9999;48.780;9.146;2023-02-28T12:04:12;6.43;;;4.43;;
7511;SDS011;9999;48.780;9.146;2023-02-28T12:06:52;6.50;;;4.27;;
7511;SDS011;9999;48.780;9.146;2023-02-28T12:09:32;4.87;;;3.90;;
7511;SDS011;9999;48.780;9.146;2023-02-28T12:12:07;10.07;;;5.30;;
7511;SDS011;9999;48.780;9.146;2023-02-28T12:17:55;8.17;;;5.00;;
7511;SDS011;9999;48.780;9.146;2023-02-28T12:20:34;8.57;;;4.60;;
7511;SDS011;9999;48.780;9.146;2023-02-28T12:23:14;6.10;;;4.10;;
7511;SDS011;9999;48.780;9.146;2023-02-28T12:25:57;6.47;;;4.27;;
7511;SDS011;9999;48.780;9.146;2023-02-28T12:28:29;6.27;;;3.87;;
7511;SDS011;9999;48.780;9.146;2023-02-28T12:31:00;8.10;;;4.47;;
7511;SDS011;9999;48.780;9.146;2023-02-28T12:33:33;7.10;;;4.63;;
7511;SDS011;9999;48.780;9.146;2023-02-28T12:36:03;6.20;;;4.00;;
7511;SDS011;9999;48.780;9.146;2023-02-28T12:38:38;6.70;;;4.50;;
7511;SDS011;9999;48.780;9.146;2023-02-28T12:41:12;5.97;;;4.40;;
7511;SDS011;9999;48.780;9.146;2023-02-28T12:43:43;4.73;;;3.73;;
7511;SDS011;9999;48.780;9.146;2023-02-28T12:46:14;5.67;;;4.03;;
7511;SDS011;9999;48.780;9.146;2023-02-28T12:48:46;5.10;;;3.87;;
7511;SDS011;9999;48.780;9.146;2023-02-28T12:51:16;5.30;;;3.80;;
7511;SDS011;9999;48.780;9.146;2023-02-28T12:53:49;6.03;;;4.50;;
7511;SDS011;9999;48.780;9.146;2023-02-28T12:56:22;5.63;;;4.30;;
7511;SDS011;9999;48.780;9.146;2023-02-28T12:59:01;8.03;;;4.97;;
7511;SDS011;9999;48.780;9.146;2023-02-28T13:10:40;6.20;;;4.17;;
7511;SDS011;9999;48.780;9.146;2023-02-28T13:13:14;6.07;;;4.07;;
7511;SDS011;9999;48.780;9.146;2023-02-28T13:15:56;5.77;;;4.67;;
7511;SDS011;9999;48.780;9.146;2023-02-28T13:18:32;6.50;;;4.20;;
7511;SDS011;9999;48.780;9.146;2023-02-28T13:21:02;6.13;;;4.30;;
7511;SDS011;9999;48.780;9.146;2023-02-28T13:29:34;5.50;;;4.17;;
7511;SDS011;9999;48.780;9.146;2023-02-28T13:35:15;6.70;;;4.80;;
7511;SDS011;9999;48.780;9.146;2023-02-28T13:38:21;6.07;;;4.60;;
7511;SDS011;9999;48.780;9.146;2023-02-28T13:44:05;6.37;;;4.60;;
7511;SDS011;9999;48.780;9.146;2023-02-28T13:46:35;5.47;;;4.20;;
7511;SDS011;9999;48.780;9.146;2023-02-28T13:49:24;5.07;;;3.83;;
7511;SDS011;9999;48.780;9.146;2023-02-28T13:51:53;6.17;;;4.33;;
7511;SDS011;9999;48.780;9.146;2023-02-28T13:54:33;6.60;;;4.37;;
7511;SDS011;9999;48.780;9.146;2023-02-28T13:57:12;8.30;;;4.33;;
7511;SDS011;9999;48.780;9.146;2023-02-28T13:59:51;7.67;;;4.57;;
7511;SDS011;9999;48.780;9.146;2023-02-28T14:02:51;5.77;;;4.07;;
7511;SDS011;9999;48.780;9.146;2023-02-28T14:05:34;6.80;;;4.33;;
7511;SDS011;9999;48.780;9.146;2023-02-28T14:08:04;6.23;;;4.40;;
7511;SDS011;9999;48.780;9.146;2023-02-28T14:10:41;7.20;;;4.30;;
7511;SDS011;9999;48.780;9.146;2023-02-28T14:13:12;6.07;;;4.07;;
7511;SDS011;9999;48.780;9.146;2023-02-28T14:15:55;5.20;;;3.97;;
7511;SDS011;9999;48.780;9.146;2023-02-28T14:18:25;4.27;;;3.87;;
7511;SDS011;9999;48.780;9.146;2023-02-28T14:20:57;4.97;;;4.37;;
7511;SDS011;9999;48.780;9.146;2023-02-28T14:23:46;6.20;;;4.10;;
7511;SDS011;9999;48.780;9.146;2023-02-28T14:26:46;7.30;;;4.23;;
7511;SDS011;9999;48.780;9.146;2023-02-28T14:29:33;5.53;;;4.10;;
7511;SDS011;9999;48.780;9.146;2023-02-28T14:32:11;5.03;;;3.97;;
7511;SDS011;9999;48.780;9.146;2023-02-28T14:34:48;6.60;;;3.83;;
7511;SDS011;9999;48.780;9.146;2023-02-28T14:37:19;6.47;;;4.00;;
7511;SDS011;9999;48.780;9.146;2023-02-28T14:39:51;7.37;;;4.53;;
7511;SDS011;9999;48.780;9.146;2023-02-28T14:42:27;5.77;;;3.93;;
7511;SDS011;9999;48.780;9.146;2023-02-28T14:44:55;5.57;;;3.90;;
7511;SDS011;9999;48.780;9.146;2023-02-28T14:47:23;4.73;;;3.90;;
7511;SDS011;9999;48.780;9.146;2023-02-28T14:49:55;6.03;;;4.13;;
7511;SDS011;9999;48.780;9.146;2023-02-28T14:52:22;6.13;;;3.90;;
7511;SDS011;9999;48.780;9.146;2023-02-28T14:54:52;5.17;;;3.87;;
7511;SDS011;9999;48.780;9.146;2023-02-28T14:57:21;7.17;;;4.80;;
7511;SDS011;9999;48.780;9.146;2023-02-28T14:59:56;5.33;;;3.77;;
7511;SDS011;9999;48.780;9.146;2023-02-28T15:02:25;6.23;;;3.13;;
7511;SDS011;9999;48.780;9.146;2023-02-28T15:04:58;5.30;;;4.00;;
7511;SDS011;9999;48.780;9.146;2023-02-28T15:07:27;6.53;;;4.50;;
7511;SDS011;9999;48.780;9.146;2023-02-28T15:12:51;6.03;;;4.20;;
7511;SDS011;9999;48.780;9.146;2023-02-28T15:15:21;5.60;;;3.63;;
7511;SDS011;9999;48.780;9.146;2023-02-28T15:17:50;6.03;;;3.80;;
7511;SDS011;9999;48.780;9.146;2023-02-28T15:20:21;10.57;;;4.20;;
7511;SDS011;9999;48.780;9.146;2023-02-28T15:22:49;6.93;;;4.17;;
7511;SDS011;9999;48.780;9.146;2023-02-28T15:25:20;5.63;;;3.83;;
7511;SDS011;9999;48.780;9.146;2023-02-28T15:27:48;7.53;;;5.10;;
7511;SDS011;9999;48.780;9.146;2023-02-28T15:30:17;6.47;;;3.87;;
7511;SDS011;9999;48.780;9.146;2023-02-28T15:33:01;6.07;;;3.87;;
7511;SDS011;9999;48.780;9.146;2023-02-28T15:35:32;6.33;;;4.23;;
7511;SDS011;9999;48.780;9.146;2023-02-28T15:38:00;6.80;;;4.13;;
7511;SDS011;9999;48.780;9.146;2023-02-28T15:40:30;5.60;;;3.60;;
7511;SDS011;9999;48.780;9.146;2023-02-28T15:43:12;8.07;;;4.27;;
7511;SDS011;9999;48.780;9.146;2023-02-28T15:45:41;5.40;;;4.07;;
7511;SDS011;9999;48.780;9.146;2023-02-28T15:48:16;4.57;;;3.90;;
7511;SDS011;9999;48.780;9.146;2023-02-28T15:50:48;6.77;;;4.60;;
7511;SDS011;9999;48.780;9.146;2023-02-28T15:53:18;6.30;;;4.33;;
7511;SDS011;9999;48.780;9.146;2023-02-28T15:55:52;6.60;;;4.23;;
7511;SDS011;9999;48.780;9.146;2023-02-28T15:58:21;5.37;;;3.70;;
7511;SDS011;9999;48.780;9.146;2023-02-28T16:00:59;7.83;;;4.43;;
7511;SDS011;9999;48.780;9.146;2023-02-28T16:03:34;6.90;;;4.00;;
7511;SDS011;9999;48.780;9.146;2023-02-28T16:06:18;6.53;;;4.13;;
7511;SDS011;9999;48.780;9.146;2023-02-28T16:08:52;4.03;;;3.30;;
7511;SDS011;9999;48.780;9.146;2023-02-28T16:11:19;6.13;;;3.97;;
7511;SDS011;9999;48.780;9.146;2023-02-28T16:13:47;4.30;;;3.67;;